Accueil
METAR-TAF:

METAR-TAF

Aéroports :

Tunis, Tunisie

Aéroport international de Tunis-Carthage

latitude: 36-50N, longitude: 010-14E, altitude: 3 m

Observation

Le bulletin a été fait il y a 33 minutes, à 00:00 UTC
Vent 7 kt de sud/sud-ouest
Température 11°C
Humidité 76%
Pression 1025 hPa
Visibilité 10 km ou plus
Nuages épars à une hauteur de 2300 ft

METAR: DTTA 140000Z 21007KT 9999 SCT023 11/07 Q1025 NOSIG

Heure: 01:33 (00:33 UTC)

Prévision

Le bulletin a été fait il y a 1 heure et 33 minutes, à 23:00 UTC
Prévision valable du 14 à 00 UTC au 14 à 24 UTC
Vent 12 kt de sud-ouest
Visibilité 10 km ou plus
Nuages épars à une hauteur de 2300 ft

TAF: DTTA 132300Z 1400/1424 22012KT 9999 SCT023

Observations et prévisions météorologiques de plus de 4000 aéroports (messages METAR et TAF).

Les stations disponibles sont représentées par des disques jaunes et rouges sur la carte.

Passer la souris dessus pour voir le nom de la station.

Cliquer dessus pour voir les observations et prévisions météorologiques.

Pour changer de carte: cliquez sur les boutons verts avec une croix noire pour zoomer, sur le bouton vert avec un tiret pour effectuer un zoom arrière, ou sur les flèches vertes pour les cartes adjacentes.


METAR-TAF: